Time;durP1;ratioP1;P1;durP2;ratioP2;P2;SDS_P1;SDS_P2;PMS_P1;PMS_P2;Temp;Humidity;BMP_temperature;BMP_pressure;BME280_temperature;BME280_humidity;BME280_pressure;Samples;Min_cycle;Max_cycle;Signal;HPM_P1;HPM_P2
2022/02/21 00:00:22;;;;;;;3.20;1.40;;;9.10;99.90;;;;;;5037547;28;20456;-54
2022/02/21 00:02:52;;;;;;;4.50;1.83;;;9.10;99.90;;;;;;5037757;28;20503;-52
2022/02/21 00:05:19;;;;;;;2.53;1.13;;;9.10;99.90;;;;;;5037777;28;20487;-48
2022/02/21 00:07:47;;;;;;;4.20;0.90;;;9.10;99.90;;;;;;5037763;28;20461;-51
2022/02/21 00:10:15;;;;;;;1.60;0.97;;;9.10;99.90;;;;;;5037738;28;20469;-53
2022/02/21 00:12:42;;;;;;;13.13;1.30;;;9.10;99.90;;;;;;5037415;28;20432;-50
2022/02/21 00:15:12;;;;;;;2.27;1.30;;;9.10;99.90;;;;;;5037609;28;20460;-52
2022/02/21 00:17:38;;;;;;;1.60;0.73;;;9.10;99.90;;;;;;5037659;28;20476;-50
2022/02/21 00:20:06;;;;;;;1.40;0.90;;;9.20;99.90;;;;;;5037836;28;20828;-51
2022/02/21 00:22:33;;;;;;;1.20;0.83;;;9.10;99.90;;;;;;5037586;28;20472;-49
2022/02/21 00:25:01;;;;;;;1.20;0.70;;;9.20;99.90;;;;;;5037409;28;20460;-51
2022/02/21 00:27:28;;;;;;;1.20;0.90;;;9.20;99.90;;;;;;5038223;28;20482;-58
2022/02/21 00:29:54;;;;;;;1.13;0.70;;;9.20;99.90;;;;;;5037723;28;20437;-54
2022/02/21 00:32:21;;;;;;;0.90;0.60;;;9.20;99.90;;;;;;5037230;28;20510;-52
2022/02/21 00:34:48;;;;;;;4.00;1.00;;;9.30;99.90;;;;;;5037143;28;20522;-54
2022/02/21 00:37:14;;;;;;;1.27;0.80;;;9.30;99.90;;;;;;5036715;28;20514;-52
2022/02/21 00:39:41;;;;;;;0.90;0.80;;;9.30;99.90;;;;;;5037086;28;20476;-52
2022/02/21 00:42:09;;;;;;;1.30;1.00;;;9.40;99.90;;;;;;5037206;28;20506;-51
2022/02/21 00:44:36;;;;;;;1.57;1.37;;;9.60;99.90;;;;;;5036782;28;20937;-51
2022/02/21 00:47:04;;;;;;;1.40;0.87;;;9.40;99.90;;;;;;5036899;28;20522;-54
2022/02/21 00:49:31;;;;;;;1.40;0.70;;;9.50;99.90;;;;;;5036954;28;20453;-52
2022/02/21 00:51:58;;;;;;;0.80;0.60;;;9.50;99.90;;;;;;5036542;28;20476;-52
2022/02/21 00:54:26;;;;;;;0.90;0.73;;;9.50;99.90;;;;;;5036838;28;20447;-53
2022/02/21 00:56:52;;;;;;;0.80;0.60;;;9.60;99.90;;;;;;5036786;28;20444;-51
2022/02/21 00:59:21;;;;;;;1.30;0.70;;;9.60;99.90;;;;;;5036345;28;20487;-53
2022/02/21 01:01:47;;;;;;;1.37;0.83;;;9.70;99.90;;;;;;5037213;28;20514;-50
2022/02/21 01:04:14;;;;;;;3.03;1.10;;;9.70;99.90;;;;;;5036564;28;20472;-54
2022/02/21 01:06:41;;;;;;;1.20;0.73;;;9.70;99.90;;;;;;5036622;28;20453;-54
2022/02/21 01:09:07;;;;;;;1.57;0.70;;;9.70;99.90;;;;;;5036228;28;20440;-49
2022/02/21 01:11:34;;;;;;;4.10;1.10;;;9.80;99.90;;;;;;5036400;28;20538;-51
2022/02/21 01:14:01;;;;;;;1.40;0.77;;;9.80;99.90;;;;;;5036478;28;20464;-51
2022/02/21 01:16:30;;;;;;;1.00;0.73;;;9.80;99.90;;;;;;5036191;28;20774;-51
2022/02/21 01:18:57;;;;;;;2.70;1.07;;;9.80;99.90;;;;;;5036054;28;20499;-53
2022/02/21 01:21:24;;;;;;;1.73;0.70;;;9.90;99.90;;;;;;5036331;28;20757;-53
2022/02/21 01:23:50;;;;;;;2.63;1.13;;;9.90;99.90;;;;;;5035987;28;20529;-49
2022/02/21 01:26:18;;;;;;;2.90;0.83;;;10.00;99.90;;;;;;5036265;28;20452;-50
2022/02/21 01:28:44;;;;;;;1.93;0.93;;;10.10;99.90;;;;;;5036171;28;20473;-49
2022/02/21 01:31:12;;;;;;;2.13;0.70;;;10.10;99.90;;;;;;5036217;28;20448;-54
2022/02/21 01:33:40;;;;;;;1.47;0.80;;;10.20;99.90;;;;;;5036074;28;20456;-48
2022/02/21 01:36:07;;;;;;;1.47;0.80;;;10.20;99.90;;;;;;5035767;28;20459;-50
2022/02/21 01:38:34;;;;;;;1.57;0.67;;;10.20;99.90;;;;;;5035686;28;20541;-56
2022/02/21 01:41:00;;;;;;;2.13;0.87;;;10.20;99.90;;;;;;5036446;28;20472;-54
2022/02/21 01:43:27;;;;;;;1.53;0.90;;;10.30;99.90;;;;;;5036122;28;20448;-54
2022/02/21 01:45:54;;;;;;;1.57;0.80;;;10.30;99.90;;;;;;5036037;28;20440;-51
2022/02/21 01:48:20;;;;;;;1.30;0.73;;;10.40;99.90;;;;;;5036046;28;20511;-51
2022/02/21 01:50:48;;;;;;;2.20;0.90;;;10.40;99.90;;;;;;5036288;28;20483;-49
2022/02/21 01:53:15;;;;;;;1.00;0.70;;;10.40;99.90;;;;;;5035946;28;20572;-49
2022/02/21 01:55:44;;;;;;;1.37;1.00;;;10.50;99.90;;;;;;5035959;28;20433;-52
2022/02/21 01:58:11;;;;;;;0.90;0.70;;;10.50;99.90;;;;;;5035663;28;20550;-53
2022/02/21 02:00:38;;;;;;;2.60;0.80;;;10.50;99.90;;;;;;5035578;28;20460;-54
2022/02/21 02:03:05;;;;;;;1.53;0.70;;;10.60;99.90;;;;;;5035500;28;20444;-54
2022/02/21 02:05:31;;;;;;;2.40;0.70;;;10.60;99.90;;;;;;5035430;28;20464;-53
2022/02/21 02:08:00;;;;;;;1.43;0.60;;;10.60;99.90;;;;;;5035502;28;20757;-50
2022/02/21 02:10:27;;;;;;;0.90;0.60;;;10.60;99.90;;;;;;5035172;28;20515;-51
2022/02/21 02:12:54;;;;;;;1.30;0.80;;;10.70;99.90;;;;;;5034571;28;20475;-51
2022/02/21 02:15:21;;;;;;;4.20;1.00;;;10.70;99.90;;;;;;5035330;28;20441;-54
2022/02/21 02:17:48;;;;;;;3.47;1.63;;;10.70;99.90;;;;;;5035285;28;20484;-57
2022/02/21 02:20:16;;;;;;;1.40;0.80;;;10.70;99.90;;;;;;5035845;28;20457;-53
2022/02/21 02:22:45;;;;;;;2.83;0.90;;;10.70;99.90;;;;;;5035311;28;20996;-52
2022/02/21 02:25:12;;;;;;;4.70;0.80;;;10.80;99.90;;;;;;5035097;28;20445;-51
2022/02/21 02:27:41;;;;;;;1.67;0.80;;;10.80;99.90;;;;;;5035210;28;20457;-50
2022/02/21 02:30:08;;;;;;;1.53;1.00;;;10.80;99.90;;;;;;5035025;28;20477;-51
2022/02/21 02:32:35;;;;;;;1.57;0.63;;;10.80;99.90;;;;;;5034007;28;20441;-51
2022/02/21 02:35:02;;;;;;;1.87;0.70;;;10.80;99.90;;;;;;5034882;28;20449;-54
2022/02/21 02:37:28;;;;;;;1.67;0.70;;;10.70;99.90;;;;;;5034808;28;20530;-52
2022/02/21 02:39:57;;;;;;;1.77;1.00;;;10.70;99.90;;;;;;5034649;28;20890;-54
2022/02/21 02:42:25;;;;;;;0.87;0.67;;;10.50;99.90;;;;;;5034792;28;20472;-50
2022/02/21 02:44:51;;;;;;;1.00;0.73;;;10.40;99.90;;;;;;5034762;28;20448;-49
2022/02/21 02:47:18;;;;;;;3.00;0.70;;;10.20;99.90;;;;;;5034576;28;20992;-52
2022/02/21 02:49:45;;;;;;;1.00;0.60;;;9.90;99.90;;;;;;5034892;28;20437;-52
2022/02/21 02:52:12;;;;;;;0.80;0.50;;;9.60;99.90;;;;;;5034774;28;20440;-51
2022/02/21 02:54:38;;;;;;;1.00;0.60;;;9.40;99.90;;;;;;5034732;28;20476;-50
2022/02/21 02:57:07;;;;;;;2.20;0.87;;;9.10;99.90;;;;;;5034578;28;20902;-50
2022/02/21 02:59:34;;;;;;;1.20;0.70;;;8.90;99.90;;;;;;5036576;28;20491;-50
2022/02/21 03:02:01;;;;;;;1.53;0.50;;;8.70;99.90;;;;;;5037828;28;20444;-47
2022/02/21 03:04:28;;;;;;;0.80;0.50;;;8.60;99.90;;;;;;5037158;28;20452;-51
2022/02/21 03:06:58;;;;;;;0.80;0.50;;;8.50;99.90;;;;;;5036748;28;20479;-54
2022/02/21 03:09:25;;;;;;;0.80;0.50;;;8.40;99.90;;;;;;5040279;28;20463;-51
2022/02/21 03:11:52;;;;;;;0.90;0.60;;;8.40;99.90;;;;;;5045126;28;20451;-49
2022/02/21 03:14:20;;;;;;;1.43;0.50;;;8.30;99.90;;;;;;5044214;28;20433;-49
2022/02/21 03:16:46;;;;;;;0.90;0.60;;;8.30;99.90;;;;;;5038620;28;20922;-53
2022/02/21 03:19:13;;;;;;;2.30;0.70;;;8.30;99.90;;;;;;5038994;28;20775;-50
2022/02/21 03:21:40;;;;;;;0.90;0.50;;;8.20;99.90;;;;;;5038866;28;20507;-51
2022/02/21 03:24:07;;;;;;;0.80;0.60;;;8.20;99.90;;;;;;5042802;28;20440;-49
2022/02/21 03:26:34;;;;;;;1.97;0.60;;;8.20;99.90;;;;;;5043357;28;20513;-47
2022/02/21 03:29:01;;;;;;;0.90;0.60;;;8.20;99.90;;;;;;5043241;28;20455;-51
2022/02/21 03:31:29;;;;;;;0.87;0.60;;;8.10;99.90;;;;;;5044019;28;20483;-49
2022/02/21 03:33:55;;;;;;;0.80;0.50;;;8.10;99.90;;;;;;5044559;28;20474;-50
2022/02/21 03:36:22;;;;;;;0.80;0.50;;;8.10;99.90;;;;;;5044115;28;20530;-50
2022/02/21 03:38:49;;;;;;;1.47;1.27;;;8.10;99.90;;;;;;5058418;28;20450;-46
2022/02/21 03:41:16;;;;;;;0.90;0.60;;;8.10;99.90;;;;;;5058600;28;20457;-45
2022/02/21 03:43:43;;;;;;;0.90;0.50;;;8.00;99.90;;;;;;5058851;28;20460;-45
2022/02/21 03:46:10;;;;;;;2.70;0.60;;;8.00;99.90;;;;;;5058012;28;20704;-50
2022/02/21 03:48:38;;;;;;;1.27;0.60;;;8.00;99.90;;;;;;5057969;28;20456;-49
2022/02/21 03:51:05;;;;;;;0.80;0.57;;;8.10;99.90;;;;;;5057906;28;20428;-48
2022/02/21 03:53:32;;;;;;;0.90;0.60;;;8.10;99.90;;;;;;5057394;28;20441;-55
2022/02/21 03:55:59;;;;;;;1.20;0.60;;;8.10;99.90;;;;;;5057385;28;20467;-51
2022/02/21 03:58:26;;;;;;;0.80;0.47;;;8.10;99.90;;;;;;5057225;28;20463;-51
2022/02/21 04:00:53;;;;;;;0.80;0.60;;;8.00;99.90;;;;;;5056833;28;20506;-46
2022/02/21 04:03:22;;;;;;;0.80;0.50;;;8.00;99.90;;;;;;5056114;28;20474;-48
2022/02/21 04:05:49;;;;;;;0.90;0.53;;;8.00;99.90;;;;;;5056567;28;20443;-47
2022/02/21 04:08:16;;;;;;;0.90;0.67;;;8.10;99.90;;;;;;5057076;28;20482;-46
2022/02/21 04:10:43;;;;;;;0.80;0.50;;;8.10;99.90;;;;;;5056808;28;20478;-53
2022/02/21 04:13:09;;;;;;;1.33;0.60;;;8.10;99.90;;;;;;5056194;28;20468;-54
2022/02/21 04:15:36;;;;;;;1.50;0.63;;;8.00;99.90;;;;;;5056436;28;20423;-49
2022/02/21 04:18:03;;;;;;;1.00;0.60;;;8.10;99.90;;;;;;5056254;28;20551;-51
2022/02/21 04:20:31;;;;;;;3.27;0.90;;;8.10;99.90;;;;;;5056336;28;20477;-50
2022/02/21 04:22:59;;;;;;;1.03;0.60;;;8.10;99.90;;;;;;5057613;28;20439;-55
2022/02/21 04:25:26;;;;;;;0.80;0.60;;;8.00;99.90;;;;;;5056593;28;20456;-42
2022/02/21 04:27:54;;;;;;;1.00;0.63;;;8.00;99.90;;;;;;5056901;28;20440;-46
2022/02/21 04:30:22;;;;;;;2.57;0.90;;;8.00;99.90;;;;;;5056744;28;20437;-43
2022/02/21 04:32:50;;;;;;;0.90;0.60;;;8.00;99.90;;;;;;5057176;28;20429;-50
2022/02/21 04:35:18;;;;;;;0.97;0.60;;;8.00;99.90;;;;;;5055924;28;20459;-53
2022/02/21 04:37:46;;;;;;;1.30;0.60;;;8.00;99.90;;;;;;5056165;28;20472;-47
2022/02/21 04:40:16;;;;;;;3.00;0.70;;;8.00;99.90;;;;;;5057022;28;20467;-51
2022/02/21 04:42:42;;;;;;;1.40;0.60;;;8.00;99.90;;;;;;5056445;28;20450;-49
2022/02/21 04:45:09;;;;;;;1.37;1.00;;;8.00;99.90;;;;;;5056859;28;20432;-45
2022/02/21 04:47:37;;;;;;;1.00;0.60;;;8.00;99.90;;;;;;5056464;28;20471;-47
2022/02/21 04:50:08;;;;;;;0.93;0.60;;;8.00;99.90;;;;;;5055788;28;20458;-47
2022/02/21 04:52:35;;;;;;;0.83;0.50;;;8.00;99.90;;;;;;5055260;28;20457;-49
2022/02/21 04:55:02;;;;;;;0.97;0.60;;;7.90;99.90;;;;;;5056067;28;20478;-48
2022/02/21 04:57:30;;;;;;;0.80;0.50;;;7.80;99.90;;;;;;5056733;28;20475;-47
2022/02/21 04:59:57;;;;;;;0.90;0.60;;;7.70;99.90;;;;;;5056509;28;20510;-42
2022/02/21 05:02:24;;;;;;;1.00;0.60;;;7.60;99.90;;;;;;5055562;28;20475;-41
2022/02/21 05:04:52;;;;;;;0.80;0.50;;;7.50;99.90;;;;;;5056400;28;20444;-40
2022/02/21 05:07:24;;;;;;;1.20;0.73;;;7.50;99.90;;;;;;5056495;28;20571;-45
2022/02/21 05:09:51;;;;;;;0.90;0.60;;;7.40;99.90;;;;;;5057236;28;20471;-46
2022/02/21 05:12:18;;;;;;;1.20;0.50;;;7.40;99.90;;;;;;5057120;28;20443;-48
2022/02/21 05:14:46;;;;;;;1.13;0.60;;;7.40;99.90;;;;;;5057513;28;20474;-45
2022/02/21 05:17:12;;;;;;;0.80;0.50;;;7.30;99.90;;;;;;5057510;28;20445;-46
2022/02/21 05:19:41;;;;;;;6.93;2.60;;;7.40;99.90;;;;;;5057450;28;20498;-43
2022/02/21 05:22:08;;;;;;;1.37;0.80;;;7.40;99.90;;;;;;5056894;28;20459;-50
2022/02/21 05:24:36;;;;;;;1.60;0.80;;;7.40;99.90;;;;;;5056938;28;20457;-44
2022/02/21 05:27:03;;;;;;;1.43;0.67;;;7.40;99.90;;;;;;5057264;28;20531;-44
2022/02/21 05:29:30;;;;;;;3.07;1.97;;;7.40;99.90;;;;;;5057157;28;20439;-47
2022/02/21 05:31:58;;;;;;;0.97;0.53;;;7.30;99.90;;;;;;5056874;28;20455;-45
2022/02/21 05:34:24;;;;;;;0.83;0.60;;;7.20;99.90;;;;;;5056859;28;20412;-42
2022/02/21 05:36:51;;;;;;;2.03;0.67;;;7.20;99.90;;;;;;5056757;28;20435;-44
2022/02/21 05:39:18;;;;;;;3.33;0.70;;;7.20;99.90;;;;;;5057241;28;20512;-45
2022/02/21 05:41:45;;;;;;;0.80;0.50;;;7.20;99.90;;;;;;5057041;28;20506;-41
2022/02/21 05:44:12;;;;;;;1.20;0.77;;;7.10;99.90;;;;;;5056995;28;20430;-50
2022/02/21 05:46:38;;;;;;;1.33;0.80;;;7.10;99.90;;;;;;5057187;28;20451;-48
2022/02/21 05:49:06;;;;;;;1.60;0.70;;;7.10;99.90;;;;;;5056633;28;20452;-47
2022/02/21 05:51:34;;;;;;;1.70;0.80;;;7.10;99.90;;;;;;5057098;28;20473;-46
2022/02/21 05:54:02;;;;;;;1.00;0.73;;;7.00;99.90;;;;;;5056792;28;20514;-46
2022/02/21 05:56:30;;;;;;;1.17;0.90;;;7.00;99.90;;;;;;5056821;28;20468;-41
2022/02/21 05:58:57;;;;;;;2.00;1.30;;;7.10;99.90;;;;;;5057279;28;20486;-47
2022/02/21 06:01:24;;;;;;;2.60;1.03;;;7.00;99.90;;;;;;5057196;28;20447;-49
2022/02/21 06:03:51;;;;;;;1.53;1.27;;;7.00;99.90;;;;;;5057643;28;20445;-44
2022/02/21 06:06:19;;;;;;;3.10;1.03;;;6.90;99.90;;;;;;5057616;28;20417;-39
2022/02/21 06:08:45;;;;;;;1.00;0.80;;;6.90;99.90;;;;;;5057589;28;20472;-48
2022/02/21 06:11:12;;;;;;;2.80;0.87;;;6.90;99.90;;;;;;5057231;28;20468;-45
2022/02/21 06:13:39;;;;;;;4.93;0.80;;;6.80;99.90;;;;;;5057166;28;20492;-49
2022/02/21 06:16:06;;;;;;;0.90;0.60;;;6.80;99.90;;;;;;5057329;28;20449;-40
2022/02/21 06:18:33;;;;;;;4.10;1.33;;;6.80;99.90;;;;;;5056955;28;20901;-45
2022/02/21 06:20:59;;;;;;;0.90;0.60;;;6.80;99.90;;;;;;5056854;28;20437;-38
2022/02/21 06:23:28;;;;;;;9.13;1.07;;;6.50;99.90;;;;;;5056679;28;20466;-47
2022/02/21 06:25:54;;;;;;;1.87;0.73;;;6.30;99.90;;;;;;5056666;28;20495;-43
2022/02/21 06:28:24;;;;;;;2.50;0.80;;;6.20;99.90;;;;;;5056451;28;20503;-48
2022/02/21 06:30:51;;;;;;;1.93;1.30;;;6.00;99.90;;;;;;5056443;28;20487;-46
2022/02/21 06:33:21;;;;;;;3.53;0.80;;;5.90;99.90;;;;;;5056347;28;20464;-45
2022/02/21 06:35:48;;;;;;;0.90;0.67;;;5.80;99.90;;;;;;5055809;28;20453;-48
2022/02/21 06:38:14;;;;;;;1.87;0.90;;;5.70;99.90;;;;;;5055478;28;20486;-47
2022/02/21 06:40:43;;;;;;;2.00;1.10;;;5.50;99.90;;;;;;5055892;28;20518;-41
2022/02/21 06:43:10;;;;;;;0.87;0.63;;;5.50;99.90;;;;;;5055797;28;20499;-47
2022/02/21 06:45:37;;;;;;;0.80;0.53;;;5.30;99.90;;;;;;5055204;28;20501;-61
2022/02/21 06:48:05;;;;;;;0.93;0.77;;;5.30;99.90;;;;;;5054819;28;20437;-62
2022/02/21 06:50:31;;;;;;;1.17;0.90;;;5.30;99.90;;;;;;5050168;28;20444;-61
2022/02/21 06:52:58;;;;;;;1.17;0.80;;;5.20;99.90;;;;;;5048294;28;20543;-62
2022/02/21 06:55:25;;;;;;;1.30;0.83;;;5.20;99.90;;;;;;5050404;28;20933;-62
2022/02/21 06:57:54;;;;;;;1.10;0.60;;;5.20;99.90;;;;;;5048809;28;20464;-62
2022/02/21 07:00:20;;;;;;;1.87;0.80;;;5.20;99.90;;;;;;5049143;28;20488;-62
2022/02/21 07:02:47;;;;;;;1.50;0.70;;;5.20;99.90;;;;;;5047683;28;20440;-62
2022/02/21 07:05:14;;;;;;;1.13;0.80;;;5.20;99.90;;;;;;5047408;28;20448;-62
2022/02/21 07:07:41;;;;;;;5.63;0.87;;;5.30;99.90;;;;;;5046192;28;20460;-64
2022/02/21 07:10:09;;;;;;;2.40;1.70;;;5.30;99.90;;;;;;5045480;28;20469;-63
2022/02/21 07:12:36;;;;;;;5.10;1.20;;;5.30;99.90;;;;;;5043888;28;20450;-50
2022/02/21 07:15:05;;;;;;;5.50;1.43;;;5.40;99.90;;;;;;5036769;28;20463;-47
2022/02/21 07:17:37;;;;;;;11.97;1.10;;;5.40;99.90;;;;;;5065595;28;20893;-52
2022/02/21 07:20:04;;;;;;;1.40;1.13;;;5.50;99.90;;;;;;5057230;28;20488;-48
2022/02/21 07:22:31;;;;;;;2.63;1.50;;;5.60;99.90;;;;;;5063499;28;20440;-50
2022/02/21 07:24:58;;;;;;;1.47;0.80;;;5.70;99.90;;;;;;5065617;28;20469;-49
2022/02/21 07:27:25;;;;;;;7.23;2.03;;;5.70;99.90;;;;;;5067994;28;20456;-48
2022/02/21 07:29:51;;;;;;;2.00;1.53;;;5.70;99.90;;;;;;5061040;28;20496;-52
2022/02/21 07:32:20;;;;;;;7.73;1.20;;;5.70;99.90;;;;;;5049582;28;20544;-47
2022/02/21 07:34:46;;;;;;;8.07;1.97;;;5.60;99.90;;;;;;5030254;28;20449;-45
2022/02/21 07:37:13;;;;;;;3.17;1.27;;;5.40;99.90;;;;;;5034778;28;20723;-51
2022/02/21 07:39:39;;;;;;;2.50;1.20;;;5.30;99.90;;;;;;5048836;28;20480;-64
2022/02/21 07:42:09;;;;;;;8.63;2.10;;;5.20;99.90;;;;;;5051142;28;20448;-60
2022/02/21 07:44:35;;;;;;;5.30;2.03;;;5.20;99.90;;;;;;5054730;28;20479;-65
2022/02/21 07:47:03;;;;;;;8.50;3.23;;;5.20;99.90;;;;;;5055044;28;20491;-58
2022/02/21 07:49:31;;;;;;;5.17;1.53;;;5.20;99.90;;;;;;5055111;28;20440;-60
2022/02/21 07:51:57;;;;;;;3.77;1.60;;;5.30;99.90;;;;;;5054318;28;20441;-66
2022/02/21 07:54:25;;;;;;;2.23;0.83;;;5.40;99.90;;;;;;5054483;28;20429;-62
2022/02/21 07:56:51;;;;;;;6.57;1.80;;;5.50;99.90;;;;;;5054436;28;20449;-62
2022/02/21 07:59:18;;;;;;;2.73;1.27;;;5.60;99.90;;;;;;5054396;28;20452;-58
2022/02/21 08:01:45;;;;;;;9.63;1.23;;;5.60;99.90;;;;;;5063780;28;20450;-56
2022/02/21 08:04:11;;;;;;;11.27;1.43;;;5.70;99.90;;;;;;5072999;28;20550;-52
2022/02/21 08:06:39;;;;;;;3.47;1.13;;;5.70;99.90;;;;;;5073121;28;20435;-61
2022/02/21 08:09:06;;;;;;;11.87;2.33;;;5.70;99.90;;;;;;5073613;28;20465;-62
2022/02/21 08:11:33;;;;;;;6.20;1.20;;;5.80;99.90;;;;;;5066895;28;20464;-64
2022/02/21 08:14:00;;;;;;;2.50;1.30;;;5.80;99.90;;;;;;5057748;28;20444;-62
2022/02/21 08:16:29;;;;;;;2.20;1.17;;;5.80;99.90;;;;;;5057509;28;20441;-63
2022/02/21 08:18:56;;;;;;;5.60;1.63;;;5.80;99.90;;;;;;5056902;28;20455;-63
2022/02/21 08:21:22;;;;;;;6.73;1.40;;;5.80;99.90;;;;;;5056750;28;20480;-62
2022/02/21 08:23:51;;;;;;;3.20;1.43;;;5.80;99.90;;;;;;5057285;28;20445;-63
2022/02/21 08:26:17;;;;;;;11.10;1.77;;;5.90;99.90;;;;;;5057571;28;20469;-63
2022/02/21 08:28:46;;;;;;;6.90;1.43;;;5.90;99.90;;;;;;5057208;28;20447;-63
2022/02/21 08:31:13;;;;;;;3.40;1.10;;;5.90;99.90;;;;;;5057468;28;20436;-62
2022/02/21 08:33:39;;;;;;;0.90;0.70;;;5.90;99.90;;;;;;5057773;28;20442;-63
2022/02/21 08:36:07;;;;;;;2.07;1.43;;;5.90;99.90;;;;;;5057595;28;20479;-60
2022/02/21 08:38:34;;;;;;;5.60;0.90;;;5.90;99.90;;;;;;5057662;28;20468;-62
2022/02/21 08:41:02;;;;;;;3.03;0.93;;;5.80;99.90;;;;;;5056847;28;20541;-59
2022/02/21 08:43:32;;;;;;;6.50;1.30;;;5.80;99.90;;;;;;5056909;28;20495;-62
2022/02/21 08:45:59;;;;;;;1.47;0.60;;;5.90;99.90;;;;;;5057446;28;20444;-62
2022/02/21 08:48:25;;;;;;;1.63;1.53;;;5.90;99.90;;;;;;5057325;28;20433;-63
2022/02/21 08:50:52;;;;;;;1.93;0.80;;;5.80;99.90;;;;;;5057021;28;20447;-60
2022/02/21 08:53:19;;;;;;;2.50;0.87;;;5.80;99.90;;;;;;5056906;28;20460;-61
2022/02/21 08:55:48;;;;;;;7.30;1.10;;;5.80;99.90;;;;;;5056995;28;20452;-63
2022/02/21 08:58:19;;;;;;;15.70;1.20;;;5.80;99.90;;;;;;5057154;28;20443;-58
2022/02/21 09:00:46;;;;;;;1.37;0.93;;;5.80;99.90;;;;;;5057062;28;20556;-63
2022/02/21 09:03:13;;;;;;;1.97;1.00;;;5.80;99.90;;;;;;5057413;28;20440;-63
2022/02/21 09:05:40;;;;;;;2.70;1.00;;;5.90;99.90;;;;;;5056765;28;20441;-60
2022/02/21 09:08:07;;;;;;;2.00;0.93;;;6.00;99.90;;;;;;5057087;28;20524;-60
2022/02/21 09:10:34;;;;;;;5.73;1.10;;;6.10;99.90;;;;;;5056824;28;20449;-60
2022/02/21 09:13:05;;;;;;;4.83;2.10;;;6.20;99.90;;;;;;5056716;28;20775;-63
2022/02/21 09:15:33;;;;;;;7.10;1.30;;;6.30;99.90;;;;;;5056638;28;20424;-61
2022/02/21 09:18:02;;;;;;;6.10;1.80;;;6.30;99.90;;;;;;5056551;28;20525;-57
2022/02/21 09:20:32;;;;;;;3.07;1.40;;;6.30;99.90;;;;;;5055840;28;20481;-56
2022/02/21 09:22:59;;;;;;;2.23;1.20;;;6.20;99.90;;;;;;5056470;28;20441;-63
2022/02/21 09:25:27;;;;;;;1.30;1.00;;;6.20;99.90;;;;;;5056518;28;20440;-54
2022/02/21 09:27:54;;;;;;;6.43;2.03;;;6.20;99.90;;;;;;5056670;28;20440;-60
2022/02/21 09:30:21;;;;;;;2.20;0.90;;;6.10;99.90;;;;;;5056940;28;20470;-58
2022/02/21 09:32:50;;;;;;;4.83;1.30;;;6.00;99.90;;;;;;5056446;28;20447;-59
2022/02/21 09:35:17;;;;;;;2.60;1.30;;;6.10;99.90;;;;;;5056483;28;20473;-61
2022/02/21 09:37:44;;;;;;;5.23;1.47;;;6.20;99.90;;;;;;5055752;28;20487;-56
2022/02/21 09:40:14;;;;;;;3.10;1.00;;;6.30;99.90;;;;;;5056030;28;20485;-62
2022/02/21 09:42:42;;;;;;;11.20;1.53;;;6.30;99.90;;;;;;5056061;28;20455;-61
2022/02/21 09:45:10;;;;;;;1.97;1.10;;;6.30;99.90;;;;;;5056186;28;20768;-60
2022/02/21 09:47:36;;;;;;;3.90;1.50;;;6.40;99.90;;;;;;5055699;28;20440;-61
2022/02/21 09:50:08;;;;;;;2.30;1.00;;;6.30;99.90;;;;;;5054399;28;20441;-60
2022/02/21 09:52:35;;;;;;;2.97;0.90;;;6.40;99.90;;;;;;5055990;28;20477;-60
2022/02/21 09:55:02;;;;;;;2.43;0.90;;;6.40;99.90;;;;;;5055817;28;20462;-56
2022/02/21 09:57:29;;;;;;;1.97;1.10;;;6.50;99.90;;;;;;5055665;28;20532;-60
2022/02/21 09:59:56;;;;;;;15.93;1.23;;;6.90;99.90;;;;;;5055326;28;20450;-59
2022/02/21 10:02:29;;;;;;;4.83;2.17;;;7.20;99.90;;;;;;5056024;28;20431;-57
2022/02/21 10:05:15;;;;;;;2.07;1.20;;;7.50;99.90;;;;;;5055527;28;20845;-61
2022/02/21 10:07:43;;;;;;;8.13;1.77;;;7.50;99.90;;;;;;5055491;28;20418;-61
2022/02/21 10:10:12;;;;;;;0.90;0.63;;;7.10;99.90;;;;;;5055539;28;20443;-62
2022/02/21 10:12:47;;;;;;;4.80;0.73;;;6.90;99.90;;;;;;5054512;28;20437;-61
2022/02/21 10:15:16;;;;;;;1.30;0.70;;;6.70;99.90;;;;;;5055724;28;20469;-58
2022/02/21 10:17:43;;;;;;;3.20;1.40;;;6.60;99.90;;;;;;5055140;28;20459;-64
2022/02/21 10:20:10;;;;;;;1.10;0.70;;;6.60;99.90;;;;;;5055192;28;20493;-64
2022/02/21 10:22:39;;;;;;;5.10;2.50;;;6.60;99.90;;;;;;5056017;28;20920;-62
2022/02/21 10:25:17;;;;;;;11.60;1.30;;;6.60;99.90;;;;;;5055327;28;20444;-61
2022/02/21 10:27:44;;;;;;;3.53;1.17;;;6.50;99.90;;;;;;5054982;28;20426;-57
2022/02/21 10:30:16;;;;;;;3.00;0.67;;;6.50;99.90;;;;;;5055526;28;20462;-63
2022/02/21 10:32:43;;;;;;;1.37;0.83;;;6.50;99.90;;;;;;5055389;28;20454;-60
2022/02/21 10:35:12;;;;;;;5.70;1.20;;;6.60;99.90;;;;;;5056114;28;20533;-62
2022/02/21 10:37:45;;;;;;;2.17;1.03;;;6.50;99.90;;;;;;5055242;28;20483;-64
2022/02/21 10:40:14;;;;;;;1.30;1.00;;;6.60;99.90;;;;;;5055394;28;20492;-62
2022/02/21 10:42:42;;;;;;;2.90;1.30;;;6.60;99.90;;;;;;5055385;28;20463;-62
2022/02/21 10:45:16;;;;;;;1.10;0.70;;;6.60;99.90;;;;;;5055383;28;20439;-59
2022/02/21 10:47:59;;;;;;;6.00;1.27;;;6.60;99.90;;;;;;5055383;28;21113;-61
2022/02/21 10:50:27;;;;;;;24.40;1.60;;;6.70;99.90;;;;;;5055274;28;20647;-61
2022/02/21 10:52:56;;;;;;;1.67;0.80;;;6.70;99.90;;;;;;5055205;28;20450;-58
2022/02/21 10:55:32;;;;;;;2.80;1.00;;;6.70;99.90;;;;;;5054521;28;20468;-56
2022/02/21 10:57:59;;;;;;;4.80;0.90;;;6.70;99.90;;;;;;5054898;28;20422;-61
2022/02/21 11:00:26;;;;;;;6.17;1.00;;;6.70;99.90;;;;;;5054642;28;20512;-61
2022/02/21 11:02:54;;;;;;;9.73;1.57;;;6.70;99.90;;;;;;5055539;28;20479;-62
2022/02/21 11:05:21;;;;;;;5.87;1.30;;;6.70;99.90;;;;;;5055121;28;20488;-61
2022/02/21 11:07:49;;;;;;;4.10;1.13;;;6.80;99.90;;;;;;5054649;28;20451;-63
2022/02/21 11:10:17;;;;;;;3.37;1.30;;;6.80;99.90;;;;;;5055441;28;20445;-63
2022/02/21 11:12:49;;;;;;;8.40;4.00;;;6.90;99.90;;;;;;5048425;28;20510;-64
2022/02/21 11:15:16;;;;;;;12.77;2.30;;;6.80;99.90;;;;;;5043812;28;20511;-63
2022/02/21 11:17:43;;;;;;;2.47;1.10;;;6.80;99.90;;;;;;5043316;28;20471;-63
2022/02/21 11:20:11;;;;;;;1.67;1.10;;;6.80;99.90;;;;;;5042088;28;20897;-62
2022/02/21 11:22:37;;;;;;;1.93;0.90;;;6.90;99.90;;;;;;5042890;28;20465;-62
2022/02/21 11:25:19;;;;;;;4.60;1.53;;;6.80;99.90;;;;;;5043644;28;20441;-63
2022/02/21 11:27:55;;;;;;;5.97;1.83;;;6.80;99.90;;;;;;5044122;28;20453;-63
2022/02/21 11:30:25;;;;;;;3.43;1.10;;;6.80;99.90;;;;;;5044825;28;20445;-63
2022/02/21 11:33:06;;;;;;;4.30;1.97;;;6.80;99.90;;;;;;5043650;28;20460;-64
2022/02/21 11:35:34;;;;;;;2.57;1.87;;;6.80;99.90;;;;;;5043835;28;20501;-62
2022/02/21 11:38:18;;;;;;;4.97;1.40;;;6.90;99.90;;;;;;5043572;28;20452;-63
2022/02/21 11:40:56;;;;;;;2.03;1.10;;;6.90;99.90;;;;;;5043518;28;20497;-58
2022/02/21 11:43:33;;;;;;;2.97;1.20;;;7.00;99.90;;;;;;5044404;28;20439;-64
2022/02/21 11:46:03;;;;;;;4.83;1.93;;;7.00;99.90;;;;;;5047907;28;20463;-64
2022/02/21 11:48:54;;;;;;;1.93;1.30;;;7.00;99.90;;;;;;5047774;28;20428;-63
2022/02/21 11:51:32;;;;;;;5.43;1.93;;;6.90;99.90;;;;;;5048285;28;20805;-63
2022/02/21 11:54:36;;;;;;;3.20;0.97;;;6.90;99.90;;;;;;5049881;28;20474;-63
2022/02/21 11:57:07;;;;;;;7.13;1.33;;;6.80;99.90;;;;;;5048883;28;20478;-62
2022/02/21 11:59:42;;;;;;;3.23;1.03;;;6.80;99.90;;;;;;5047346;28;20437;-62
2022/02/21 12:02:12;;;;;;;3.03;1.50;;;6.90;99.90;;;;;;5046596;28;20553;-64
2022/02/21 12:04:54;;;;;;;1.83;1.07;;;6.90;99.90;;;;;;5046355;28;20486;-64
2022/02/21 12:07:30;;;;;;;3.70;1.10;;;6.90;99.90;;;;;;5047016;28;20443;-61
2022/02/21 12:10:24;;;;;;;1.33;1.10;;;6.90;99.90;;;;;;5047188;28;20467;-63
2022/02/21 12:12:59;;;;;;;3.57;1.20;;;7.00;99.90;;;;;;5047137;28;20429;-64
2022/02/21 12:15:30;;;;;;;5.27;1.20;;;7.10;99.90;;;;;;5047156;28;20464;-63
2022/02/21 12:18:42;;;;;;;4.60;1.10;;;7.20;99.90;;;;;;5046661;28;20469;-63
2022/02/21 12:21:11;;;;;;;1.87;1.00;;;7.20;99.90;;;;;;5047442;28;20470;-64
2022/02/21 12:23:39;;;;;;;2.40;1.30;;;7.30;99.90;;;;;;5047142;28;20506;-62
2022/02/21 12:26:18;;;;;;;3.67;0.90;;;7.30;99.90;;;;;;5046676;28;20480;-62
2022/02/21 12:28:46;;;;;;;2.20;1.13;;;7.40;99.90;;;;;;5045622;28;20440;-64
2022/02/21 12:31:26;;;;;;;1.87;1.00;;;7.40;99.90;;;;;;5046015;28;20462;-63
2022/02/21 12:33:58;;;;;;;3.13;2.00;;;7.40;99.90;;;;;;5046172;28;20474;-63
2022/02/21 12:36:33;;;;;;;3.33;0.77;;;7.30;99.90;;;;;;5046286;28;20476;-63
2022/02/21 12:39:00;;;;;;;2.80;1.30;;;7.20;99.90;;;;;;5045503;28;20433;-62
2022/02/21 12:41:35;;;;;;;5.87;1.00;;;7.20;99.90;;;;;;5045498;28;20493;-63
2022/02/21 12:44:05;;;;;;;7.73;0.90;;;7.30;99.90;;;;;;5045914;28;20468;-63
2022/02/21 12:46:37;;;;;;;1.67;1.23;;;7.30;99.90;;;;;;5046740;28;20890;-52
2022/02/21 12:49:07;;;;;;;5.00;2.70;;;7.30;99.90;;;;;;5048757;28;20473;-61
2022/02/21 12:51:36;;;;;;;3.77;1.63;;;7.10;99.90;;;;;;5045941;28;20461;-62
2022/02/21 12:54:05;;;;;;;6.20;2.00;;;7.10;99.90;;;;;;5047130;28;20498;-64
2022/02/21 12:56:44;;;;;;;1.73;1.53;;;7.00;99.90;;;;;;5045082;28;20437;-64
2022/02/21 12:59:11;;;;;;;2.77;1.20;;;7.10;99.90;;;;;;5044909;28;20472;-61
2022/02/21 13:01:39;;;;;;;3.43;0.90;;;7.10;99.90;;;;;;5045214;28;20491;-62